GAFTM EGAC-EGPE
Flight info
| Callsign | GAFTM |
|---|---|
| Flight time | 0h 38m |
| Altitude | 25000 |
| Route | BLACA P600 TRN DCT GOW N560 NESDI DCT GUSSI DCT INS |
| Aircraft | PC24/M-SBDGIRWY/LB2 |
Departure
| Time | 2026-05-08 11:35 |
|---|---|
| Airport | George Best Belfast City Airport (EGAC) |
Arrival
| Time | 2026-05-08 12:14 |
|---|---|
| Airport | Inverness Airport (EGPE) |
| Time | Latitude | Longitude | Altitude | Speed | Heading |
|---|---|---|---|---|---|
| 2026-05-08 11:14 | 54.61100 | -5.87733 | 14 ft | 0 kts | 125° |
| 2026-05-08 11:32 | 54.61101 | -5.87716 | 14 ft | 1 kts | 65° |
| 2026-05-08 11:33 | 54.61103 | -5.87715 | 14 ft | 1 kts | 31° |
| 2026-05-08 11:33 | 54.61108 | -5.87725 | 14 ft | 1 kts | 263° |
| 2026-05-08 11:33 | 54.61094 | -5.87772 | 14 ft | 9 kts | 240° |
| 2026-05-08 11:33 | 54.61081 | -5.87849 | 14 ft | 4 kts | 264° |
| 2026-05-08 11:34 | 54.61081 | -5.87867 | 14 ft | 0 kts | 274° |
| 2026-05-08 11:34 | 54.61082 | -5.87878 | 14 ft | 2 kts | 285° |
| 2026-05-08 11:34 | 54.61097 | -5.87932 | 13 ft | 7 kts | 305° |
| 2026-05-08 11:34 | 54.61135 | -5.88015 | 14 ft | 9 kts | 330° |
| 2026-05-08 11:35 | 54.61183 | -5.88001 | 14 ft | 10 kts | 34° |
| 2026-05-08 11:35 | 54.61438 | -5.87702 | 7 ft | 83 kts | 33° |
| 2026-05-08 11:35 | 54.62117 | -5.86891 | 29 ft | 149 kts | 35° |
| 2026-05-08 11:35 | 54.63061 | -5.85816 | 662 ft | 172 kts | 32° |
| 2026-05-08 11:36 | 54.64215 | -5.84570 | 1198 ft | 214 kts | 30° |
| 2026-05-08 11:36 | 54.65550 | -5.83138 | 1996 ft | 241 kts | 33° |
| 2026-05-08 11:36 | 54.66865 | -5.81237 | 2697 ft | 256 kts | 43° |
| 2026-05-08 11:36 | 54.68052 | -5.78794 | 3053 ft | 265 kts | 53° |
| 2026-05-08 11:37 | 54.69323 | -5.76602 | 2933 ft | 256 kts | 27° |
| 2026-05-08 11:37 | 54.70958 | -5.75778 | 2824 ft | 235 kts | 10° |
| 2026-05-08 11:37 | 54.72520 | -5.75127 | 2685 ft | 233 kts | 16° |
| 2026-05-08 11:37 | 54.74053 | -5.73974 | 2655 ft | 246 kts | 29° |
| 2026-05-08 11:38 | 54.75504 | -5.72332 | 3207 ft | 257 kts | 34° |
| 2026-05-08 11:38 | 54.76701 | -5.69974 | 3703 ft | 269 kts | 64° |
| 2026-05-08 11:38 | 54.77366 | -5.66920 | 4255 ft | 274 kts | 70° |
| 2026-05-08 11:38 | 54.78027 | -5.63791 | 4793 ft | 279 kts | 69° |
| 2026-05-08 11:39 | 54.78712 | -5.60626 | 5346 ft | 283 kts | 69° |
| 2026-05-08 11:39 | 54.79407 | -5.57436 | 6424 ft | 283 kts | 69° |
| 2026-05-08 11:39 | 54.80110 | -5.54201 | 7362 ft | 290 kts | 70° |
| 2026-05-08 11:39 | 54.80824 | -5.50894 | 8302 ft | 296 kts | 70° |
| 2026-05-08 11:40 | 54.81556 | -5.47509 | 9262 ft | 302 kts | 70° |
| 2026-05-08 11:40 | 54.82300 | -5.44060 | 10224 ft | 309 kts | 71° |
| 2026-05-08 11:40 | 54.83055 | -5.40559 | 11240 ft | 312 kts | 71° |
| 2026-05-08 11:40 | 54.83821 | -5.37000 | 12157 ft | 319 kts | 71° |
| 2026-05-08 11:41 | 54.84603 | -5.33351 | 13107 ft | 325 kts | 71° |
| 2026-05-08 11:41 | 54.85400 | -5.29636 | 14027 ft | 332 kts | 71° |
| 2026-05-08 11:41 | 54.86211 | -5.25846 | 14861 ft | 337 kts | 71° |
| 2026-05-08 11:41 | 54.87040 | -5.22004 | 15684 ft | 342 kts | 70° |
| 2026-05-08 11:42 | 54.88205 | -5.18421 | 16439 ft | 350 kts | 54° |
| 2026-05-08 11:42 | 54.89850 | -5.15268 | 17242 ft | 356 kts | 41° |
| 2026-05-08 11:42 | 54.91897 | -5.12812 | 18051 ft | 359 kts | 26° |
| 2026-05-08 11:42 | 54.94115 | -5.10896 | 19126 ft | 347 kts | 24° |
| 2026-05-08 11:43 | 54.96312 | -5.09002 | 19520 ft | 362 kts | 24° |
| 2026-05-08 11:43 | 54.98651 | -5.06978 | 19516 ft | 388 kts | 25° |
| 2026-05-08 11:43 | 55.01115 | -5.04835 | 19809 ft | 400 kts | 25° |
| 2026-05-08 11:43 | 55.03612 | -5.02669 | 20449 ft | 402 kts | 24° |
| 2026-05-08 11:44 | 55.06136 | -5.00481 | 20989 ft | 408 kts | 24° |
| 2026-05-08 11:44 | 55.08687 | -4.98257 | 21538 ft | 412 kts | 24° |
| 2026-05-08 11:44 | 55.11262 | -4.96010 | 22065 ft | 416 kts | 24° |
| 2026-05-08 11:44 | 55.13867 | -4.93736 | 22567 ft | 420 kts | 24° |
| 2026-05-08 11:45 | 55.16496 | -4.91437 | 23102 ft | 424 kts | 24° |
| 2026-05-08 11:45 | 55.19147 | -4.89116 | 23595 ft | 429 kts | 24° |
| 2026-05-08 11:45 | 55.21825 | -4.86766 | 24004 ft | 432 kts | 24° |
| 2026-05-08 11:45 | 55.24522 | -4.84396 | 24398 ft | 435 kts | 24° |
| 2026-05-08 11:46 | 55.27235 | -4.82010 | 24783 ft | 438 kts | 23° |
| 2026-05-08 11:46 | 55.29971 | -4.79600 | 25093 ft | 442 kts | 23° |
| 2026-05-08 11:46 | 55.32806 | -4.77471 | 25111 ft | 443 kts | 14° |
| 2026-05-08 11:46 | 55.35727 | -4.75805 | 25118 ft | 440 kts | 14° |
| 2026-05-08 11:47 | 55.38617 | -4.74050 | 25118 ft | 439 kts | 15° |
| 2026-05-08 11:47 | 55.41497 | -4.72278 | 25116 ft | 438 kts | 15° |
| 2026-05-08 11:47 | 55.44377 | -4.70555 | 25127 ft | 437 kts | 14° |
| 2026-05-08 11:47 | 55.47257 | -4.68841 | 25122 ft | 437 kts | 14° |
| 2026-05-08 11:48 | 55.50134 | -4.67100 | 25144 ft | 438 kts | 15° |
| 2026-05-08 11:48 | 55.53016 | -4.65350 | 25145 ft | 438 kts | 15° |
| 2026-05-08 11:48 | 55.55898 | -4.63605 | 25118 ft | 438 kts | 15° |
| 2026-05-08 11:48 | 55.58781 | -4.61860 | 25118 ft | 438 kts | 15° |
| 2026-05-08 11:49 | 55.61666 | -4.60111 | 25116 ft | 438 kts | 15° |
| 2026-05-08 11:49 | 55.64553 | -4.58352 | 25117 ft | 438 kts | 15° |
| 2026-05-08 11:49 | 55.67437 | -4.56594 | 25118 ft | 438 kts | 15° |
| 2026-05-08 11:49 | 55.70286 | -4.54856 | 25143 ft | 439 kts | 15° |
| 2026-05-08 11:50 | 55.73174 | -4.53094 | 25118 ft | 439 kts | 15° |
| 2026-05-08 11:50 | 55.76063 | -4.51324 | 25123 ft | 440 kts | 15° |
| 2026-05-08 11:50 | 55.78956 | -4.49551 | 25096 ft | 440 kts | 15° |
| 2026-05-08 11:50 | 55.81843 | -4.47778 | 25105 ft | 439 kts | 15° |
| 2026-05-08 11:51 | 55.84725 | -4.46007 | 25107 ft | 438 kts | 15° |
| 2026-05-08 11:51 | 55.87627 | -4.44440 | 25099 ft | 432 kts | 6° |
| 2026-05-08 11:51 | 55.90590 | -4.43779 | 25115 ft | 429 kts | 1° |
| 2026-05-08 11:51 | 55.93566 | -4.43091 | 25120 ft | 432 kts | 2° |
| 2026-05-08 11:52 | 55.96545 | -4.42358 | 25119 ft | 433 kts | 2° |
| 2026-05-08 11:52 | 55.99527 | -4.41664 | 25118 ft | 432 kts | 2° |
| 2026-05-08 11:52 | 56.02502 | -4.40993 | 25115 ft | 430 kts | 2° |
| 2026-05-08 11:52 | 56.05473 | -4.40302 | 25114 ft | 430 kts | 2° |
| 2026-05-08 11:53 | 56.08435 | -4.39600 | 25111 ft | 429 kts | 2° |
| 2026-05-08 11:53 | 56.11398 | -4.38907 | 25110 ft | 430 kts | 2° |
| 2026-05-08 11:53 | 56.14369 | -4.38215 | 25109 ft | 430 kts | 2° |
| 2026-05-08 11:53 | 56.17339 | -4.37519 | 25108 ft | 431 kts | 2° |
| 2026-05-08 11:54 | 56.20311 | -4.36817 | 25104 ft | 431 kts | 2° |
| 2026-05-08 11:54 | 56.23291 | -4.36117 | 25132 ft | 432 kts | 2° |
| 2026-05-08 11:54 | 56.26275 | -4.35415 | 25104 ft | 433 kts | 2° |
| 2026-05-08 11:54 | 56.29261 | -4.34709 | 25094 ft | 433 kts | 2° |
| 2026-05-08 11:55 | 56.32242 | -4.34001 | 25093 ft | 432 kts | 2° |
| 2026-05-08 11:55 | 56.35215 | -4.33299 | 25094 ft | 431 kts | 2° |
| 2026-05-08 11:55 | 56.38198 | -4.32592 | 25090 ft | 431 kts | 2° |
| 2026-05-08 11:55 | 56.41131 | -4.31895 | 25093 ft | 431 kts | 2° |
| 2026-05-08 11:56 | 56.44116 | -4.31184 | 25090 ft | 432 kts | 2° |
| 2026-05-08 11:56 | 56.47099 | -4.30474 | 25089 ft | 433 kts | 2° |
| 2026-05-08 11:56 | 56.50088 | -4.29759 | 25102 ft | 433 kts | 2° |
| 2026-05-08 11:56 | 56.53079 | -4.29045 | 25090 ft | 433 kts | 2° |
| 2026-05-08 11:57 | 56.56063 | -4.28328 | 25085 ft | 432 kts | 2° |
| 2026-05-08 11:57 | 56.59045 | -4.27613 | 25087 ft | 432 kts | 2° |
| 2026-05-08 11:57 | 56.62022 | -4.26900 | 25087 ft | 432 kts | 2° |
| 2026-05-08 11:57 | 56.65010 | -4.26181 | 25085 ft | 432 kts | 2° |
| 2026-05-08 11:58 | 56.67991 | -4.25461 | 25082 ft | 432 kts | 2° |
| 2026-05-08 11:58 | 56.70970 | -4.24740 | 25060 ft | 429 kts | 2° |
| 2026-05-08 11:58 | 56.73892 | -4.24031 | 24053 ft | 423 kts | 3° |
| 2026-05-08 11:59 | 56.79677 | -4.22630 | 21791 ft | 412 kts | 3° |
| 2026-05-08 11:59 | 56.82488 | -4.21946 | 20730 ft | 404 kts | 4° |
| 2026-05-08 11:59 | 56.85235 | -4.21277 | 20053 ft | 389 kts | 4° |
| 2026-05-08 11:59 | 56.87880 | -4.20634 | 19525 ft | 380 kts | 3° |
| 2026-05-08 12:00 | 56.89617 | -4.20214 | 19181 ft | 381 kts | 3° |
| 2026-05-08 12:00 | 56.92256 | -4.19573 | 18658 ft | 384 kts | 4° |
| 2026-05-08 12:00 | 56.95768 | -4.18707 | 17906 ft | 384 kts | 4° |
| 2026-05-08 12:00 | 56.98405 | -4.18058 | 17357 ft | 380 kts | 4° |
| 2026-05-08 12:01 | 57.00172 | -4.17627 | 16989 ft | 378 kts | 4° |
| 2026-05-08 12:01 | 57.03604 | -4.16787 | 16273 ft | 373 kts | 4° |
| 2026-05-08 12:01 | 57.06160 | -4.16160 | 15854 ft | 369 kts | 4° |
| 2026-05-08 12:01 | 57.07883 | -4.15734 | 15546 ft | 371 kts | 4° |
| 2026-05-08 12:02 | 57.10452 | -4.15099 | 15033 ft | 373 kts | 4° |
| 2026-05-08 12:02 | 57.13015 | -4.14462 | 14515 ft | 369 kts | 4° |
| 2026-05-08 12:02 | 57.15549 | -4.13839 | 13893 ft | 365 kts | 5° |
| 2026-05-08 12:02 | 57.18036 | -4.13225 | 13338 ft | 356 kts | 5° |
| 2026-05-08 12:03 | 57.20466 | -4.12628 | 12861 ft | 349 kts | 5° |
| 2026-05-08 12:03 | 57.22867 | -4.12031 | 12380 ft | 348 kts | 5° |
| 2026-05-08 12:03 | 57.25232 | -4.11433 | 11939 ft | 347 kts | 5° |
| 2026-05-08 12:03 | 57.27622 | -4.10834 | 11443 ft | 344 kts | 5° |
| 2026-05-08 12:04 | 57.29943 | -4.10252 | 10983 ft | 327 kts | 4° |
| 2026-05-08 12:04 | 57.32139 | -4.09700 | 10574 ft | 310 kts | 4° |
| 2026-05-08 12:04 | 57.34243 | -4.09175 | 10145 ft | 301 kts | 4° |
| 2026-05-08 12:04 | 57.36299 | -4.08657 | 9749 ft | 297 kts | 4° |
| 2026-05-08 12:05 | 57.38342 | -4.08140 | 9334 ft | 296 kts | 4° |
| 2026-05-08 12:05 | 57.40371 | -4.07631 | 8917 ft | 294 kts | 4° |
| 2026-05-08 12:05 | 57.42383 | -4.07124 | 8533 ft | 292 kts | 2° |
| 2026-05-08 12:05 | 57.44396 | -4.06614 | 8100 ft | 291 kts | 3° |
| 2026-05-08 12:06 | 57.46380 | -4.06109 | 7788 ft | 286 kts | 3° |
| 2026-05-08 12:06 | 57.48354 | -4.05612 | 7394 ft | 286 kts | 3° |
| 2026-05-08 12:06 | 57.50320 | -4.05115 | 6970 ft | 284 kts | 4° |
| 2026-05-08 12:06 | 57.52266 | -4.04617 | 6584 ft | 280 kts | 2° |
| 2026-05-08 12:07 | 57.54153 | -4.03854 | 6245 ft | 281 kts | 19° |
| 2026-05-08 12:07 | 57.55737 | -4.01669 | 5829 ft | 287 kts | 45° |
| 2026-05-08 12:07 | 57.56970 | -3.98758 | 5493 ft | 286 kts | 52° |
| 2026-05-08 12:07 | 57.58169 | -3.95813 | 5151 ft | 286 kts | 49° |
| 2026-05-08 12:08 | 57.59470 | -3.93015 | 4710 ft | 281 kts | 45° |
| 2026-05-08 12:08 | 57.60764 | -3.90395 | 4347 ft | 268 kts | 45° |
| 2026-05-08 12:08 | 57.61969 | -3.87864 | 3954 ft | 253 kts | 47° |
| 2026-05-08 12:08 | 57.63088 | -3.85465 | 3643 ft | 238 kts | 46° |
| 2026-05-08 12:09 | 57.64328 | -3.83655 | 3340 ft | 224 kts | 13° |
| 2026-05-08 12:09 | 57.65780 | -3.83741 | 3064 ft | 203 kts | 329° |
| 2026-05-08 12:09 | 57.66648 | -3.85561 | 2928 ft | 186 kts | 283° |
| 2026-05-08 12:09 | 57.66467 | -3.87858 | 2809 ft | 184 kts | 238° |
| 2026-05-08 12:10 | 57.65405 | -3.89104 | 2682 ft | 186 kts | 197° |
| 2026-05-08 12:10 | 57.64115 | -3.88886 | 2519 ft | 189 kts | 171° |
| 2026-05-08 12:10 | 57.62860 | -3.88409 | 2283 ft | 179 kts | 182° |
| 2026-05-08 12:10 | 57.61703 | -3.88791 | 2045 ft | 162 kts | 221° |
| 2026-05-08 12:11 | 57.60991 | -3.90200 | 1965 ft | 134 kts | 231° |
| 2026-05-08 12:11 | 57.60381 | -3.91366 | 1503 ft | 122 kts | 231° |
| 2026-05-08 12:11 | 57.59820 | -3.92403 | 1226 ft | 105 kts | 231° |
| 2026-05-08 12:11 | 57.59329 | -3.93387 | 908 ft | 97 kts | 234° |
| 2026-05-08 12:12 | 57.58909 | -3.94395 | 637 ft | 101 kts | 232° |
| 2026-05-08 12:12 | 57.58473 | -3.95422 | 510 ft | 106 kts | 233° |
| 2026-05-08 12:12 | 57.58000 | -3.96497 | 463 ft | 109 kts | 229° |
| 2026-05-08 12:12 | 57.57476 | -3.97629 | 436 ft | 122 kts | 232° |
| 2026-05-08 12:13 | 57.56987 | -3.98778 | 555 ft | 111 kts | 236° |
| 2026-05-08 12:13 | 57.56464 | -3.99927 | 334 ft | 120 kts | 233° |
| 2026-05-08 12:13 | 57.55958 | -4.01044 | 216 ft | 106 kts | 230° |
| 2026-05-08 12:13 | 57.55486 | -4.02066 | 136 ft | 109 kts | 234° |
| 2026-05-08 12:14 | 57.54999 | -4.03103 | 72 ft | 96 kts | 230° |
| 2026-05-08 12:14 | 57.54620 | -4.03975 | 34 ft | 75 kts | 228° |
| 2026-05-08 12:14 | 57.54360 | -4.04526 | 30 ft | 49 kts | 217° |
| 2026-05-08 12:14 | 57.54136 | -4.04915 | 30 ft | 25 kts | 184° |
| 2026-05-08 12:15 | 57.53963 | -4.04872 | 32 ft | 19 kts | 173° |
| 2026-05-08 12:15 | 57.53850 | -4.04871 | 32 ft | 2 kts | 169° |